EFTP/TMP METAR and TAF weather

Enter ICAO airport designator
Station Type Date Time Source
EFTP METAR 2019/10/21 02:20 UTC NOAA

EFTP 210220Z AUTO 32005KT 5000 SCT002 BKN004 OVC006 03/03 Q1012


Station Type Date Time Source
EFTP Decoded METAR 2019/10/21 02:20 UTC NOAA

Tampere / Pirkkala, Finland (EFTP) 61-25N 023-35E 112M
Oct 20, 2019 - 10:20 PM EDT / 2019.10.21 0220 UTC
Wind: from the NW (320 degrees) at 6 MPH (5 KT):0
Visibility: 3 mile(s):0
Sky conditions: overcast
Temperature: 37 F (3 C)
Dew Point: 37 F (3 C)
Relative Humidity: 100%
Pressure (altimeter): 29.88 in. Hg (1012 hPa)
ob: EFTP 210220Z AUTO 32005KT 5000 SCT002 BKN004 OVC006 03/03 Q1012
cycle: 2

Station Type Date Time Source
EFTP TAF 2019/10/20 21:42 UTC NOAA

TAF EFTP 202035Z 2021/2121 02009KT 8000 RA FEW004 SCT016 SCT025CB
BECMG 2021/2023 3000 BR BKN003
TEMPO 2022/2105 1200 DZ BKN005
BECMG 2105/2107 5000 NSW BKN005
BECMG 2107/2109 9999
BECMG 2109/2111 BKN012
BECMG 2112/2114 BKN015

Example: see airport list